Weather reports worldwide

Advertisment
Hupsel aws, Netherlands (6283): temperature & dewpoint: 10.10.2019 05:00:00 - 16.10.2019 05:00:00 (CEST)Hupsel aws, Netherlands (6283): temperature 5cm: 10.10.2019 05:00:00 - 16.10.2019 05:00:00 (CEST)Hupsel aws, Netherlands (6283): wind speed & gusts: 10.10.2019 05:00:00 - 16.10.2019 05:00:00 (CEST)Hupsel aws, Netherlands (6283): wind direction: 10.10.2019 05:00:00 - 16.10.2019 05:00:00 (CEST)Hupsel aws, Netherlands (6283): precipitation: 10.10.2019 05:00:00 - 16.10.2019 05:00:00 (CEST)
Date & Time tt [°C] td [°C] tt 5cm [°C] ff [km/h] ff [kn] fx [km/h] fx [kn] dd rr [mm]
16.10.2019 05:00:00 12,3 12,0 11,9 11 6 18 10 SSW 0,1
16.10.2019 04:00:00 12,5 12,2 12,2 7 4 18 10 SSW 0,6
16.10.2019 03:00:00 13,0 12,8 12,7 7 4 18 10 SW 0,0
16.10.2019 02:00:00 13,4 13,2 13,1 11 6 18 10 SW 0,0
16.10.2019 01:00:00 13,6 13,4 13,3 7 4 18 10 SW 0,2
16.10.2019 00:00:00 13,7 13,5 13,4 7 4 18 10 SW 0,4
15.10.2019 23:00:00 13,6 13,5 13,4 7 4 14 8 SW 2,1
15.10.2019 22:00:00 13,9 13,7 13,6 11 6 18 10 SW 1,0
15.10.2019 21:00:00 14,1 13,9 13,8 7 4 14 8 SSW 0,5
15.10.2019 20:00:00 14,6 14,4 14,3 4 2 11 6 SSW 0,7
15.10.2019 19:00:00 14,7 14,4 14,4 4 2 7 4 S 0,2
15.10.2019 18:00:00 15,2 14,2 14,9 4 2 11 6 S 0,1
15.10.2019 17:00:00 16,0 14,3 15,6 4 2 14 8 WSW 0,0
15.10.2019 16:00:00 16,9 13,8 16,9 11 6 18 10 SW 0,0
15.10.2019 15:00:00 16,8 14,0 16,5 7 4 18 10 SW 0,0
15.10.2019 14:00:00 17,4 13,6 17,4 7 4 18 10 SW 0,0
15.10.2019 13:00:00 17,6 13,9 - 7 4 18 10 SSW 0,0
15.10.2019 12:00:00 17,7 13,4 18,7 7 4 22 12 SW 0,0
15.10.2019 11:00:00 17,1 13,7 17,4 11 6 18 10 SW 0,0
15.10.2019 10:00:00 15,0 13,6 14,1 7 4 14 8 S 0,0
15.10.2019 09:00:00 13,6 12,8 12,0 4 2 11 6 S 0,0
15.10.2019 08:00:00 14,2 13,0 12,4 4 2 14 8 SW 0,0
15.10.2019 07:00:00 14,8 13,2 12,5 7 4 11 6 SSW 0,0
15.10.2019 06:00:00 14,1 12,7 11,4 7 4 14 8 S 0,0
15.10.2019 05:00:00 15,6 13,3 13,8 7 4 18 10 S 0,0
15.10.2019 04:00:00 16,4 13,5 14,2 11 6 18 10 SSW 0,0
15.10.2019 03:00:00 16,3 13,8 14,6 11 6 18 10 SSE 0,0
15.10.2019 02:00:00 15,9 13,9 13,8 11 6 14 8 SSE 0,0
15.10.2019 01:00:00 16,1 14,2 14,1 7 4 14 8 SE 0,0
15.10.2019 00:00:00 16,9 15,1 15,7 7 4 14 8 SE 0,0
14.10.2019 23:00:00 16,3 15,4 15,0 4 2 11 6 SSE 0,0
14.10.2019 22:00:00 15,8 15,2 14,7 7 4 14 8 ESE 0,0
14.10.2019 21:00:00 15,8 15,4 13,4 11 6 11 6 E 0,0
14.10.2019 20:00:00 16,1 15,3 14,7 7 4 14 8 E 0,0
14.10.2019 19:00:00 16,6 15,5 15,5 11 6 18 10 E 0,0
14.10.2019 18:00:00 18,1 15,8 17,4 14 8 22 12 E 0,0
14.10.2019 17:00:00 18,7 15,8 18,5 14 8 22 12 E 0,0
14.10.2019 16:00:00 18,8 15,5 19,0 14 8 25 14 E 0,0
14.10.2019 15:00:00 18,7 15,0 19,6 14 8 25 14 E 0,0
14.10.2019 14:00:00 17,6 14,1 18,6 18 10 25 14 E 0,0
14.10.2019 13:00:00 16,7 13,7 17,3 14 8 22 12 E 0,0
14.10.2019 12:00:00 16,5 14,2 17,4 14 8 22 12 E 0,0
14.10.2019 11:00:00 15,2 13,5 16,0 7 4 11 6 E 0,0
14.10.2019 10:00:00 14,5 13,5 15,2 4 2 7 4 E 0,0
14.10.2019 09:00:00 12,7 12,6 12,3 0 0 7 4 N 0,0
14.10.2019 08:00:00 11,4 11,3 9,6 4 2 7 4 SSE 0,0
14.10.2019 07:00:00 11,1 11,0 9,5 4 2 7 4 SSE 0,0
14.10.2019 06:00:00 13,0 12,5 12,1 4 2 11 6 S 0,0
14.10.2019 05:00:00 13,8 12,8 13,0 7 4 14 8 SSW 0,0
14.10.2019 04:00:00 13,9 13,0 12,9 11 6 22 12 SW 0,0
14.10.2019 03:00:00 14,6 13,4 14,1 14 8 22 12 WSW 0,0
14.10.2019 02:00:00 14,9 13,3 14,2 14 8 25 14 WSW 0,0
14.10.2019 01:00:00 15,3 13,7 14,5 18 10 29 16 WSW 0,0
14.10.2019 00:00:00 15,9 13,9 15,2 18 10 36 19 WSW 0,0
13.10.2019 23:00:00 16,7 15,2 16,0 18 10 36 19 WSW 0,0
13.10.2019 22:00:00 17,3 15,4 16,1 18 10 43 23 WSW 2,7
13.10.2019 21:00:00 21,2 15,5 19,8 18 10 32 18 SSW 0,0
13.10.2019 20:00:00 21,7 15,3 20,3 18 10 29 16 S 0,0
13.10.2019 19:00:00 22,0 15,2 20,7 14 8 29 16 SSW 0,0
13.10.2019 18:00:00 22,1 15,9 20,9 14 8 25 14 SSW 0,0
13.10.2019 17:00:00 21,8 16,8 20,8 11 6 25 14 S 0,0
13.10.2019 16:00:00 21,8 16,5 21,4 14 8 32 18 S 0,0
13.10.2019 15:00:00 21,7 16,1 22,3 22 12 40 21 S 0,0
13.10.2019 14:00:00 21,3 16,7 21,4 22 12 40 21 S 0,0
13.10.2019 13:00:00 20,8 16,9 21,4 22 12 40 21 S 0,0
13.10.2019 12:00:00 18,9 16,7 18,5 18 10 29 16 S 0,0
13.10.2019 11:00:00 17,2 16,4 16,9 11 6 29 16 S 0,1
13.10.2019 10:00:00 17,6 15,8 16,6 14 8 25 14 S 0,0
13.10.2019 09:00:00 16,0 15,4 15,0 7 4 14 8 S 0,0
13.10.2019 08:00:00 15,0 14,7 13,9 7 4 14 8 S 0,0
13.10.2019 07:00:00 14,7 14,3 13,4 7 4 14 8 SSE 0,0
13.10.2019 06:00:00 13,7 13,6 12,9 7 4 11 6 SSE 0,0
13.10.2019 05:00:00 13,5 13,5 12,9 7 4 14 8 S 0,0
13.10.2019 04:00:00 11,8 11,7 10,8 4 2 11 6 SSE 0,0
13.10.2019 03:00:00 9,5 9,3 8,2 4 2 7 4 E 0,0
13.10.2019 02:00:00 8,7 8,6 6,9 4 2 4 2 NNE 0,0
13.10.2019 01:00:00 9,1 9,0 7,8 4 2 7 4 N 0,0
13.10.2019 00:00:00 9,3 9,1 8,3 4 2 11 6 N 0,0
12.10.2019 23:00:00 10,5 10,3 10,0 4 2 7 4 ENE 0,0
12.10.2019 22:00:00 10,7 10,6 10,5 4 2 7 4 NNE 0,0
12.10.2019 21:00:00 9,7 9,5 8,9 7 4 11 6 E 0,0
12.10.2019 20:00:00 10,6 10,4 10,1 7 4 14 8 NNE 0,0
12.10.2019 19:00:00 11,6 11,1 11,5 11 6 14 8 NNE 0,0
12.10.2019 18:00:00 11,9 11,5 12,0 7 4 18 10 NNE 0,0
12.10.2019 17:00:00 12,3 12,0 12,5 11 6 22 12 N 0,0
12.10.2019 16:00:00 15,1 14,0 14,8 7 4 22 12 W 0,0
12.10.2019 15:00:00 15,9 13,3 15,7 14 8 29 16 WSW 0,0
12.10.2019 14:00:00 15,6 13,0 15,1 14 8 32 18 SW 0,0
12.10.2019 13:00:00 15,7 12,9 15,8 18 10 36 19 SW 0,0
12.10.2019 12:00:00 15,3 12,5 15,0 22 12 47 25 SW 0,0
12.10.2019 11:00:00 15,2 12,4 15,0 22 12 36 19 SW 0,0
12.10.2019 10:00:00 14,9 12,2 14,7 14 8 29 16 SW 0,0
12.10.2019 09:00:00 14,5 11,9 13,9 14 8 32 18 SSW 0,0
12.10.2019 08:00:00 14,3 11,6 13,4 14 8 29 16 SSW 0,0
12.10.2019 07:00:00 15,2 11,8 14,6 14 8 29 16 SSW 0,0
12.10.2019 06:00:00 15,5 12,0 14,7 11 6 32 18 S 0,0
12.10.2019 05:00:00 16,6 12,0 15,8 14 8 36 19 SW 0,0
12.10.2019 04:00:00 16,4 12,1 15,5 18 10 40 21 SSW 0,0
12.10.2019 03:00:00 16,9 12,3 16,0 18 10 36 19 SSW 0,0
12.10.2019 02:00:00 16,4 12,1 15,5 18 10 36 19 SSW 0,0
12.10.2019 01:00:00 16,5 12,2 15,8 18 10 36 19 SSW 0,0
12.10.2019 00:00:00 16,4 12,2 15,6 18 10 40 21 SSW 0,0
11.10.2019 23:00:00 16,0 12,2 15,2 22 12 40 21 SSW 0,0
11.10.2019 22:00:00 16,1 12,1 15,4 18 10 43 23 SSW 0,0
11.10.2019 21:00:00 16,0 12,0 15,2 22 12 43 23 SSW 0,0
11.10.2019 20:00:00 15,6 11,8 14,8 22 12 40 21 SSW 0,0
11.10.2019 19:00:00 15,1 12,2 14,3 22 12 36 19 SSW 0,0
11.10.2019 18:00:00 14,5 12,5 14,0 18 10 40 21 SSW 0,0
11.10.2019 17:00:00 14,6 12,8 14,1 22 12 36 19 SSW 0,2
11.10.2019 16:00:00 14,6 12,8 14,2 18 10 36 19 S 0,1
11.10.2019 15:00:00 14,5 12,4 14,2 18 10 43 23 SSW 0,0
11.10.2019 14:00:00 14,8 12,1 14,7 22 12 43 23 SSW 0,0
11.10.2019 13:00:00 14,5 11,9 14,3 22 12 47 25 SSW 0,0
11.10.2019 12:00:00 14,6 11,8 14,3 22 12 43 23 SSW 0,0
11.10.2019 11:00:00 14,1 11,4 13,9 22 12 36 19 SSW 0,1
11.10.2019 10:00:00 13,1 11,2 12,6 18 10 40 21 SSW 0,0
11.10.2019 09:00:00 12,7 10,6 12,2 14 8 32 18 SSW 0,0
11.10.2019 08:00:00 12,7 10,2 12,0 18 10 32 18 SSW 0,3
11.10.2019 07:00:00 13,2 9,4 12,3 18 10 32 18 SSW 0,0
11.10.2019 06:00:00 13,2 9,2 12,4 18 10 32 18 SSW 0,1
11.10.2019 05:00:00 12,7 9,4 11,8 18 10 32 18 SSW 0,1
11.10.2019 04:00:00 13,1 8,7 12,5 18 10 40 21 SSW 0,0
11.10.2019 03:00:00 13,4 9,0 12,7 22 12 43 23 SSW 0,0
11.10.2019 02:00:00 13,4 9,3 12,5 18 10 36 19 SSW 0,0
11.10.2019 01:00:00 13,1 9,3 12,1 18 10 32 18 SSW 0,0
11.10.2019 00:00:00 12,7 9,3 11,6 14 8 29 16 SSW 0,0
10.10.2019 23:00:00 12,4 8,8 11,1 14 8 25 14 SSW 0,0
10.10.2019 22:00:00 11,2 8,2 9,7 11 6 18 10 S 0,0
10.10.2019 21:00:00 11,4 7,9 9,7 11 6 18 10 SSW 0,0
10.10.2019 20:00:00 12,3 7,9 10,6 7 4 25 14 SW 0,0
10.10.2019 19:00:00 12,5 8,4 11,1 14 8 29 16 WSW 0,0
10.10.2019 18:00:00 13,2 9,6 12,7 18 10 32 18 WSW 0,0
10.10.2019 17:00:00 13,1 9,1 13,1 22 12 54 29 WSW 0,0
10.10.2019 16:00:00 14,2 9,2 14,1 25 14 50 27 WSW 0,0
10.10.2019 15:00:00 14,8 9,2 15,4 25 14 43 23 WSW 0,0
10.10.2019 14:00:00 14,2 9,8 13,9 25 14 47 25 WSW 0,0
10.10.2019 13:00:00 13,5 9,3 13,1 25 14 40 21 WSW 0,0
10.10.2019 12:00:00 13,1 10,1 13,1 22 12 36 19 SW 0,0
10.10.2019 11:00:00 11,8 9,9 12,2 18 10 32 18 SW 0,0
10.10.2019 10:00:00 10,8 9,7 10,6 18 10 29 16 SW 0,0
10.10.2019 09:00:00 9,8 9,1 9,3 18 10 29 16 SW 0,0
10.10.2019 08:00:00 9,0 8,4 8,6 11 6 25 14 SW 0,0
10.10.2019 07:00:00 8,9 8,3 8,2 11 6 22 12 SSW 0,0
10.10.2019 06:00:00 10,0 9,1 9,4 11 6 25 14 SW 0,0
10.10.2019 05:00:00 9,0 7,2 7,7 7 4 25 14 SW 0,0

tt = temperature
td = dewpoint
tt 5cm = temperature 5cm
ff = wind speed
fx = gusts
dd = wind direction
rr = precipitation

Next stations